메인 페이지
METAR-TAF:

METAR-TAF

공항 :

호세 마르티 국제공항

아바나, 쿠바

위도: 22-59N, 경도: 082-24W, 고도: 59m

현재 날씨관측

예보는 32분 전, 06:55시(UTC)에 발표되었습니다.
동북동2kt
온도 18°C
습도 83%
기압 1018 hPa
시정: 9000m

METAR: MUHA 210655Z 06002KT 9000 NSC 18/15 Q1018

시각: 03:27 (07:27 UTC)

예보

예보는 2 시간 27분 전, 05:00시(UTC)에 발표되었습니다.
예보 대상 시간: 21일 06시부터 22일 06시까지 (UTC)
여러 방향의 바람 3kt
시정: 9000m
고도 3000ft 상공 구름 조금
전환 중
21일 15시부터 21일 17시까지 (UTC)
북북동9kt
전환 중
22일 03시부터 22일 05시까지 (UTC)
여러 방향의 바람 5kt

TAF: MUHA 210500Z 2106/2206 VRB03KT 9000 FEW030 BECMG 2115/2117 02009KT BECMG 2203/2205 VRB05KT

4,000개 이상의 공항 관측 자료 및 예보 (METAR 및 TAF 보고).

지도상에서 검색 가능한 기상관측소가 노란 점과 빨간 점으로 표시되어 있습니다.

기상관측소 명을 보려면 표시 위로 마우스를 이동하세요.

날씨 관측과 예보를 보려면 클릭하세요.

지도 변경 : 확대하려면 엑스 표시가 있는 녹색 버튼, 축소하려면 빼기 표시가 있는 녹색 버튼, 다음 페이지의 지도를 보려면 녹색 화살표를 클릭하세요.


METAR-TAF: